Humarock, MA

6:49 AM EDT on October 22, 2014 (GMT -0400)
Humarock Beach | Change Station
CLOSE
Current Station
Personal Weather Station
Location: Scituate, MA
Elevation: 45 ft
Nearby Weather Stations
Active Advisory: Areal Flood Watch

Elev 45 ft 42.14 °N, 70.69 °W | Updated 0 second ago

Overcast
Overcast
57.4 °F
Feels Like 57.4 °F
N
21.0
Wind Variable Wind from NE
Gusts 22.0 mph

Today
High -- | Low -- °F
--% Chance of Precip.
Yesterday
High -- | Low -- °F
Precip. -- in
7:03 AM 5:50 PM
Waning Crescent, 2% visible
Pressure 29.98 in
Visibility 6.0 miles
Clouds Overcast 400 ft
Dew Point 56 °F
Humidity 94%
Rainfall 0.00 in
Snow Depth Not available.
UV 0.0 out of 12
Pollen .30 out of 12
PM2.5 Good
Flu Activity No Activity
METAR KGHG 221010Z AUTO 05009G15KT 6SM BR OVC004 14/14 A2998 RMK AO2

More Conditions Fewer Conditions

Pressure 29.98 in
Visibility 6.0 miles
Clouds Overcast 400 ft
Dew Point 56 °F
Humidity 94%
Rainfall 0.00 in
Snow Depth Not available.
UV 0.0 out of 12
Pollen .30 out of 12
PM2.5 Good
Flu Activity No Activity
METAR KGHG 221010Z AUTO 05009G15KT 6SM BR OVC004 14/14 A2998 RMK AO2

More Conditions Fewer Conditions

10-Day Weather Forecast

Almanac

Astronomy

Oct. 22, 2014 Rise Set
Actual Time 7:03 AM EDT 5:50 PM EDT
Civil Twilight 6:34 AM EDT 6:18 PM EDT
Nautical Twilight 6:02 AM EDT 6:51 PM EDT
Astronomical Twilight 5:29 AM EDT 7:23 PM EDT
Moon 5:40 AM EDT 5:16 PM EDT
Length of Visible Light 11h 43m
Length of Day
10h 46m
Tomorrow will be 2m 39s shorter.
Waning Crescent, 2% of the Moon is Illuminated
Today
Waning Crescent
Oct 23
New
Oct 30
First Quarter
Nov 6
Full
Nov 14
Last Quarter

Today's Extremes

State Highs State Lows

Community

WunderPhotos

Upload Photos

1,763,902 photos uploaded!

Nearby

Air Quality

  Air Quality AQ Index Pollutant
Yesterday Good
OZONE
Yesterday Good
PM2.5
Current Good
PM2.5
Wednesday Good
PM2.5
Thursday Good
PM2.5

Snow Depth

Station Depth Elevation
No new snow has been reported.

Earthquake Activity

City Distance Mag. Time & Date
No recent earthquake activity has been reported nearby.
Minimum magnitude displayed is 2.5.

Coastal Water Temperatures

Place Temperature
Boston, MA 57.0 °F
Fall River, MA 63.0 °F

Nearby Weather Stations